sensor_id;sensor_type;location;lat;lon;timestamp;P1;durP1;ratioP1;P2;durP2;ratioP2
15905;SDS011;8051;50.820;4.884;2024-03-23T00:53:34;28.93;;;19.47;;
15905;SDS011;8051;50.820;4.884;2024-03-23T00:56:00;20.47;;;18.30;;
15905;SDS011;8051;50.820;4.884;2024-03-23T00:58:28;25.53;;;17.87;;
15905;SDS011;8051;50.820;4.884;2024-03-23T01:00:54;21.50;;;18.20;;
15905;SDS011;8051;50.820;4.884;2024-03-23T01:03:22;18.60;;;16.67;;
15905;SDS011;8051;50.820;4.884;2024-03-23T01:05:48;20.80;;;15.33;;
15905;SDS011;8051;50.820;4.884;2024-03-23T01:08:15;20.30;;;18.10;;
15905;SDS011;8051;50.820;4.884;2024-03-23T01:10:43;19.43;;;17.33;;
15905;SDS011;8051;50.820;4.884;2024-03-23T01:13:21;19.33;;;17.73;;
15905;SDS011;8051;50.820;4.884;2024-03-23T01:15:48;19.83;;;16.20;;
15905;SDS011;8051;50.820;4.884;2024-03-23T01:18:17;19.27;;;15.10;;
15905;SDS011;8051;50.820;4.884;2024-03-23T01:20:43;26.70;;;19.10;;
15905;SDS011;8051;50.820;4.884;2024-03-23T01:23:11;19.67;;;17.23;;
15905;SDS011;8051;50.820;4.884;2024-03-23T01:25:37;19.37;;;17.47;;
15905;SDS011;8051;50.820;4.884;2024-03-23T01:28:06;18.20;;;16.43;;
15905;SDS011;8051;50.820;4.884;2024-03-23T01:30:33;18.23;;;15.60;;
15905;SDS011;8051;50.820;4.884;2024-03-23T01:33:01;20.33;;;16.10;;
15905;SDS011;8051;50.820;4.884;2024-03-23T01:35:28;22.67;;;18.70;;
15905;SDS011;8051;50.820;4.884;2024-03-23T01:37:57;21.87;;;19.87;;
15905;SDS011;8051;50.820;4.884;2024-03-23T01:40:23;25.23;;;20.17;;
15905;SDS011;8051;50.820;4.884;2024-03-23T01:42:55;24.07;;;18.47;;
15905;SDS011;8051;50.820;4.884;2024-03-23T01:45:23;17.83;;;16.13;;
15905;SDS011;8051;50.820;4.884;2024-03-23T01:47:51;20.33;;;18.23;;
15905;SDS011;8051;50.820;4.884;2024-03-23T01:50:18;23.00;;;19.50;;
15905;SDS011;8051;50.820;4.884;2024-03-23T01:52:46;20.43;;;18.57;;
15905;SDS011;8051;50.820;4.884;2024-03-23T01:55:12;20.10;;;18.03;;
15905;SDS011;8051;50.820;4.884;2024-03-23T01:57:40;18.43;;;16.73;;
15905;SDS011;8051;50.820;4.884;2024-03-23T02:00:07;22.10;;;16.73;;
15905;SDS011;8051;50.820;4.884;2024-03-23T02:02:41;24.37;;;18.30;;
15905;SDS011;8051;50.820;4.884;2024-03-23T02:05:09;19.50;;;17.43;;
15905;SDS011;8051;50.820;4.884;2024-03-23T02:07:37;18.97;;;17.30;;
15905;SDS011;8051;50.820;4.884;2024-03-23T02:10:05;18.50;;;15.90;;
15905;SDS011;8051;50.820;4.884;2024-03-23T02:12:34;17.07;;;15.57;;
15905;SDS011;8051;50.820;4.884;2024-03-23T02:15:01;26.23;;;17.80;;
15905;SDS011;8051;50.820;4.884;2024-03-23T02:17:30;22.80;;;17.60;;
15905;SDS011;8051;50.820;4.884;2024-03-23T02:20:00;24.63;;;17.00;;
15905;SDS011;8051;50.820;4.884;2024-03-23T02:22:34;23.87;;;17.97;;
15905;SDS011;8051;50.820;4.884;2024-03-23T02:25:05;28.17;;;16.77;;
15905;SDS011;8051;50.820;4.884;2024-03-23T02:27:33;19.93;;;16.47;;
15905;SDS011;8051;50.820;4.884;2024-03-23T02:30:01;23.67;;;18.13;;
15905;SDS011;8051;50.820;4.884;2024-03-23T02:32:28;20.83;;;16.73;;
15905;SDS011;8051;50.820;4.884;2024-03-23T02:34:55;19.97;;;17.40;;
15905;SDS011;8051;50.820;4.884;2024-03-23T02:37:22;19.33;;;17.43;;
15905;SDS011;8051;50.820;4.884;2024-03-23T02:39:49;22.60;;;15.47;;
15905;SDS011;8051;50.820;4.884;2024-03-23T02:42:18;23.27;;;15.53;;
15905;SDS011;8051;50.820;4.884;2024-03-23T02:44:45;20.73;;;17.40;;
15905;SDS011;8051;50.820;4.884;2024-03-23T02:47:12;26.53;;;17.33;;
15905;SDS011;8051;50.820;4.884;2024-03-23T02:49:39;21.00;;;16.50;;
15905;SDS011;8051;50.820;4.884;2024-03-23T02:52:06;18.07;;;15.93;;
15905;SDS011;8051;50.820;4.884;2024-03-23T02:54:32;20.90;;;13.13;;
15905;SDS011;8051;50.820;4.884;2024-03-23T02:57:00;22.23;;;13.80;;
15905;SDS011;8051;50.820;4.884;2024-03-23T02:59:27;21.47;;;16.67;;
15905;SDS011;8051;50.820;4.884;2024-03-23T03:01:55;23.93;;;15.40;;
15905;SDS011;8051;50.820;4.884;2024-03-23T03:04:21;26.13;;;16.50;;
15905;SDS011;8051;50.820;4.884;2024-03-23T03:06:49;17.07;;;15.23;;
15905;SDS011;8051;50.820;4.884;2024-03-23T03:09:15;17.53;;;13.43;;
15905;SDS011;8051;50.820;4.884;2024-03-23T03:11:42;21.17;;;13.87;;
15905;SDS011;8051;50.820;4.884;2024-03-23T03:14:08;17.97;;;16.13;;
15905;SDS011;8051;50.820;4.884;2024-03-23T03:16:37;16.17;;;14.40;;
15905;SDS011;8051;50.820;4.884;2024-03-23T03:19:03;17.83;;;15.43;;
15905;SDS011;8051;50.820;4.884;2024-03-23T03:21:31;24.80;;;14.93;;
15905;SDS011;8051;50.820;4.884;2024-03-23T03:23:57;18.13;;;14.53;;
15905;SDS011;8051;50.820;4.884;2024-03-23T03:26:25;24.00;;;16.60;;
15905;SDS011;8051;50.820;4.884;2024-03-23T03:28:52;26.10;;;17.73;;
15905;SDS011;8051;50.820;4.884;2024-03-23T03:31:19;30.50;;;18.87;;
15905;SDS011;8051;50.820;4.884;2024-03-23T03:33:49;26.87;;;18.37;;
15905;SDS011;8051;50.820;4.884;2024-03-23T03:36:17;19.17;;;17.17;;
15905;SDS011;8051;50.820;4.884;2024-03-23T03:38:43;28.77;;;17.47;;
15905;SDS011;8051;50.820;4.884;2024-03-23T03:41:10;24.70;;;19.77;;
15905;SDS011;8051;50.820;4.884;2024-03-23T03:43:37;26.63;;;18.77;;
15905;SDS011;8051;50.820;4.884;2024-03-23T03:46:04;29.77;;;19.00;;
15905;SDS011;8051;50.820;4.884;2024-03-23T03:48:33;25.20;;;18.70;;
15905;SDS011;8051;50.820;4.884;2024-03-23T03:51:02;25.90;;;18.40;;
15905;SDS011;8051;50.820;4.884;2024-03-23T03:53:29;26.47;;;18.27;;
15905;SDS011;8051;50.820;4.884;2024-03-23T03:55:56;29.60;;;20.30;;
15905;SDS011;8051;50.820;4.884;2024-03-23T03:58:26;38.80;;;21.17;;
15905;SDS011;8051;50.820;4.884;2024-03-23T04:00:53;36.53;;;20.40;;
15905;SDS011;8051;50.820;4.884;2024-03-23T04:03:20;34.00;;;21.17;;
15905;SDS011;8051;50.820;4.884;2024-03-23T04:05:50;37.17;;;20.53;;
15905;SDS011;8051;50.820;4.884;2024-03-23T04:08:18;25.13;;;19.47;;
15905;SDS011;8051;50.820;4.884;2024-03-23T04:10:46;31.33;;;22.00;;
15905;SDS011;8051;50.820;4.884;2024-03-23T04:13:12;42.47;;;23.20;;
15905;SDS011;8051;50.820;4.884;2024-03-23T04:15:40;28.63;;;22.20;;
15905;SDS011;8051;50.820;4.884;2024-03-23T04:18:07;36.23;;;21.37;;
15905;SDS011;8051;50.820;4.884;2024-03-23T04:20:34;36.70;;;20.77;;
15905;SDS011;8051;50.820;4.884;2024-03-23T04:23:01;19.83;;;17.53;;
15905;SDS011;8051;50.820;4.884;2024-03-23T04:25:30;32.80;;;21.43;;
15905;SDS011;8051;50.820;4.884;2024-03-23T04:27:57;30.73;;;23.27;;
15905;SDS011;8051;50.820;4.884;2024-03-23T04:30:24;37.47;;;23.03;;
15905;SDS011;8051;50.820;4.884;2024-03-23T04:32:53;28.33;;;21.80;;
15905;SDS011;8051;50.820;4.884;2024-03-23T04:35:22;27.63;;;20.67;;
15905;SDS011;8051;50.820;4.884;2024-03-23T04:37:50;41.37;;;21.13;;
15905;SDS011;8051;50.820;4.884;2024-03-23T04:40:19;28.17;;;20.23;;
15905;SDS011;8051;50.820;4.884;2024-03-23T04:42:49;35.67;;;25.40;;
15905;SDS011;8051;50.820;4.884;2024-03-23T04:45:15;41.10;;;22.33;;
15905;SDS011;8051;50.820;4.884;2024-03-23T04:47:43;41.83;;;22.93;;
15905;SDS011;8051;50.820;4.884;2024-03-23T04:50:10;37.67;;;23.93;;
15905;SDS011;8051;50.820;4.884;2024-03-23T04:52:38;41.10;;;19.77;;
15905;SDS011;8051;50.820;4.884;2024-03-23T04:55:06;38.67;;;22.57;;
15905;SDS011;8051;50.820;4.884;2024-03-23T04:57:34;39.43;;;24.27;;
15905;SDS011;8051;50.820;4.884;2024-03-23T05:00:01;36.83;;;22.83;;
15905;SDS011;8051;50.820;4.884;2024-03-23T05:02:40;29.47;;;22.40;;
15905;SDS011;8051;50.820;4.884;2024-03-23T05:05:07;30.50;;;22.60;;
15905;SDS011;8051;50.820;4.884;2024-03-23T05:07:34;34.10;;;22.60;;
15905;SDS011;8051;50.820;4.884;2024-03-23T05:10:01;34.87;;;22.37;;
15905;SDS011;8051;50.820;4.884;2024-03-23T05:12:28;29.07;;;22.83;;
15905;SDS011;8051;50.820;4.884;2024-03-23T05:14:56;32.70;;;23.43;;
15905;SDS011;8051;50.820;4.884;2024-03-23T05:17:24;28.93;;;24.83;;
15905;SDS011;8051;50.820;4.884;2024-03-23T05:19:52;38.00;;;25.23;;
15905;SDS011;8051;50.820;4.884;2024-03-23T05:22:18;28.27;;;22.50;;
15905;SDS011;8051;50.820;4.884;2024-03-23T05:24:46;32.80;;;25.13;;
15905;SDS011;8051;50.820;4.884;2024-03-23T05:27:12;29.47;;;23.87;;
15905;SDS011;8051;50.820;4.884;2024-03-23T05:29:39;37.07;;;25.63;;
15905;SDS011;8051;50.820;4.884;2024-03-23T05:32:06;36.50;;;25.77;;
15905;SDS011;8051;50.820;4.884;2024-03-23T05:34:35;45.50;;;26.53;;
15905;SDS011;8051;50.820;4.884;2024-03-23T05:37:01;31.57;;;26.23;;
15905;SDS011;8051;50.820;4.884;2024-03-23T05:39:29;35.93;;;26.23;;
15905;SDS011;8051;50.820;4.884;2024-03-23T05:41:56;34.13;;;27.17;;
15905;SDS011;8051;50.820;4.884;2024-03-23T05:44:23;38.80;;;29.30;;
15905;SDS011;8051;50.820;4.884;2024-03-23T05:46:49;34.37;;;27.60;;
15905;SDS011;8051;50.820;4.884;2024-03-23T05:49:16;33.20;;;28.47;;
15905;SDS011;8051;50.820;4.884;2024-03-23T05:51:45;34.43;;;28.60;;
15905;SDS011;8051;50.820;4.884;2024-03-23T05:54:12;39.20;;;28.63;;
15905;SDS011;8051;50.820;4.884;2024-03-23T05:56:39;32.43;;;26.97;;
15905;SDS011;8051;50.820;4.884;2024-03-23T05:59:06;34.23;;;25.57;;
15905;SDS011;8051;50.820;4.884;2024-03-23T06:01:34;30.83;;;25.80;;
15905;SDS011;8051;50.820;4.884;2024-03-23T06:04:00;36.67;;;24.93;;
15905;SDS011;8051;50.820;4.884;2024-03-23T06:06:28;30.20;;;25.67;;
15905;SDS011;8051;50.820;4.884;2024-03-23T06:08:57;30.50;;;24.70;;
15905;SDS011;8051;50.820;4.884;2024-03-23T06:11:24;28.20;;;25.10;;
15905;SDS011;8051;50.820;4.884;2024-03-23T06:13:51;30.43;;;23.87;;
15905;SDS011;8051;50.820;4.884;2024-03-23T06:16:19;29.03;;;21.07;;
15905;SDS011;8051;50.820;4.884;2024-03-23T06:18:48;34.77;;;22.67;;
15905;SDS011;8051;50.820;4.884;2024-03-23T06:21:16;23.17;;;20.57;;
15905;SDS011;8051;50.820;4.884;2024-03-23T06:23:42;30.50;;;20.53;;
15905;SDS011;8051;50.820;4.884;2024-03-23T06:26:14;23.13;;;20.27;;
15905;SDS011;8051;50.820;4.884;2024-03-23T06:28:41;27.53;;;20.00;;
15905;SDS011;8051;50.820;4.884;2024-03-23T06:31:08;22.87;;;20.70;;
15905;SDS011;8051;50.820;4.884;2024-03-23T06:33:35;28.67;;;22.33;;
15905;SDS011;8051;50.820;4.884;2024-03-23T06:36:03;24.17;;;21.63;;
15905;SDS011;8051;50.820;4.884;2024-03-23T06:38:30;30.13;;;24.17;;
15905;SDS011;8051;50.820;4.884;2024-03-23T06:40:57;28.00;;;24.13;;
15905;SDS011;8051;50.820;4.884;2024-03-23T06:43:25;32.57;;;25.10;;
15905;SDS011;8051;50.820;4.884;2024-03-23T06:45:52;28.43;;;25.03;;
15905;SDS011;8051;50.820;4.884;2024-03-23T06:48:19;27.70;;;24.80;;
15905;SDS011;8051;50.820;4.884;2024-03-23T06:50:48;27.63;;;24.80;;
15905;SDS011;8051;50.820;4.884;2024-03-23T06:53:15;28.37;;;25.50;;
15905;SDS011;8051;50.820;4.884;2024-03-23T06:55:42;28.53;;;25.70;;
15905;SDS011;8051;50.820;4.884;2024-03-23T06:58:16;27.17;;;24.27;;
15905;SDS011;8051;50.820;4.884;2024-03-23T07:00:48;27.20;;;24.07;;
15905;SDS011;8051;50.820;4.884;2024-03-23T07:03:15;31.30;;;24.53;;
15905;SDS011;8051;50.820;4.884;2024-03-23T07:05:43;26.47;;;23.67;;
15905;SDS011;8051;50.820;4.884;2024-03-23T07:08:11;30.23;;;24.17;;
15905;SDS011;8051;50.820;4.884;2024-03-23T07:10:43;30.03;;;25.03;;
15905;SDS011;8051;50.820;4.884;2024-03-23T07:13:10;29.17;;;23.73;;
15905;SDS011;8051;50.820;4.884;2024-03-23T07:15:37;26.83;;;24.00;;
15905;SDS011;8051;50.820;4.884;2024-03-23T07:18:05;28.90;;;25.83;;
15905;SDS011;8051;50.820;4.884;2024-03-23T07:20:33;28.13;;;25.23;;
15905;SDS011;8051;50.820;4.884;2024-03-23T07:22:59;27.10;;;24.57;;
15905;SDS011;8051;50.820;4.884;2024-03-23T07:25:26;27.17;;;24.47;;
15905;SDS011;8051;50.820;4.884;2024-03-23T07:27:54;29.63;;;24.23;;
15905;SDS011;8051;50.820;4.884;2024-03-23T07:30:21;29.83;;;24.20;;
15905;SDS011;8051;50.820;4.884;2024-03-23T07:32:48;26.37;;;23.60;;
15905;SDS011;8051;50.820;4.884;2024-03-23T07:35:17;29.23;;;22.73;;
15905;SDS011;8051;50.820;4.884;2024-03-23T07:37:43;28.97;;;24.10;;
15905;SDS011;8051;50.820;4.884;2024-03-23T07:40:12;27.50;;;24.53;;
15905;SDS011;8051;50.820;4.884;2024-03-23T07:42:39;27.47;;;24.17;;
15905;SDS011;8051;50.820;4.884;2024-03-23T07:45:06;28.17;;;25.73;;
15905;SDS011;8051;50.820;4.884;2024-03-23T07:47:34;29.43;;;26.43;;
15905;SDS011;8051;50.820;4.884;2024-03-23T07:50:02;28.20;;;25.37;;
15905;SDS011;8051;50.820;4.884;2024-03-23T07:52:30;27.20;;;24.70;;
15905;SDS011;8051;50.820;4.884;2024-03-23T07:54:57;26.97;;;24.57;;
15905;SDS011;8051;50.820;4.884;2024-03-23T07:57:24;25.37;;;23.07;;
15905;SDS011;8051;50.820;4.884;2024-03-23T07:59:51;24.17;;;22.10;;
15905;SDS011;8051;50.820;4.884;2024-03-23T08:02:17;31.60;;;21.90;;
15905;SDS011;8051;50.820;4.884;2024-03-23T08:04:44;26.37;;;23.87;;
15905;SDS011;8051;50.820;4.884;2024-03-23T08:07:11;24.60;;;22.70;;
15905;SDS011;8051;50.820;4.884;2024-03-23T08:09:40;24.33;;;21.87;;
15905;SDS011;8051;50.820;4.884;2024-03-23T08:12:06;24.40;;;22.20;;
15905;SDS011;8051;50.820;4.884;2024-03-23T08:14:34;26.33;;;23.67;;
15905;SDS011;8051;50.820;4.884;2024-03-23T08:17:00;25.23;;;23.10;;
15905;SDS011;8051;50.820;4.884;2024-03-23T08:19:28;26.77;;;24.67;;
15905;SDS011;8051;50.820;4.884;2024-03-23T08:21:54;26.97;;;24.13;;
15905;SDS011;8051;50.820;4.884;2024-03-23T08:24:22;25.53;;;23.23;;
15905;SDS011;8051;50.820;4.884;2024-03-23T08:26:49;29.33;;;26.23;;
15905;SDS011;8051;50.820;4.884;2024-03-23T08:29:17;27.20;;;24.80;;
15905;SDS011;8051;50.820;4.884;2024-03-23T08:31:43;27.77;;;25.03;;
15905;SDS011;8051;50.820;4.884;2024-03-23T08:34:10;28.03;;;25.33;;
15905;SDS011;8051;50.820;4.884;2024-03-23T08:36:37;26.77;;;24.20;;
15905;SDS011;8051;50.820;4.884;2024-03-23T08:39:04;26.60;;;24.20;;
15905;SDS011;8051;50.820;4.884;2024-03-23T08:41:30;29.47;;;24.80;;
15905;SDS011;8051;50.820;4.884;2024-03-23T08:44:00;26.47;;;24.23;;
15905;SDS011;8051;50.820;4.884;2024-03-23T08:46:26;25.87;;;23.43;;
15905;SDS011;8051;50.820;4.884;2024-03-23T08:48:54;37.97;;;25.87;;
15905;SDS011;8051;50.820;4.884;2024-03-23T08:51:20;32.40;;;27.93;;
15905;SDS011;8051;50.820;4.884;2024-03-23T08:53:47;31.27;;;27.50;;
15905;SDS011;8051;50.820;4.884;2024-03-23T08:56:14;33.90;;;28.97;;
15905;SDS011;8051;50.820;4.884;2024-03-23T08:58:41;31.13;;;28.27;;
15905;SDS011;8051;50.820;4.884;2024-03-23T09:01:09;31.60;;;29.03;;
15905;SDS011;8051;50.820;4.884;2024-03-23T09:03:38;34.87;;;31.47;;
15905;SDS011;8051;50.820;4.884;2024-03-23T09:06:06;34.47;;;31.30;;
15905;SDS011;8051;50.820;4.884;2024-03-23T09:08:34;31.53;;;28.37;;
15905;SDS011;8051;50.820;4.884;2024-03-23T09:11:03;33.20;;;29.90;;
15905;SDS011;8051;50.820;4.884;2024-03-23T09:13:32;33.67;;;30.53;;
15905;SDS011;8051;50.820;4.884;2024-03-23T09:15:59;32.87;;;29.83;;
15905;SDS011;8051;50.820;4.884;2024-03-23T09:18:28;33.63;;;30.33;;
15905;SDS011;8051;50.820;4.884;2024-03-23T09:20:57;30.97;;;28.57;;
15905;SDS011;8051;50.820;4.884;2024-03-23T09:23:24;32.13;;;28.97;;
15905;SDS011;8051;50.820;4.884;2024-03-23T09:25:50;34.03;;;31.27;;
15905;SDS011;8051;50.820;4.884;2024-03-23T09:28:18;29.93;;;27.47;;
15905;SDS011;8051;50.820;4.884;2024-03-23T09:30:44;31.17;;;28.37;;
15905;SDS011;8051;50.820;4.884;2024-03-23T09:33:12;32.70;;;30.23;;
15905;SDS011;8051;50.820;4.884;2024-03-23T09:35:40;34.23;;;31.23;;
15905;SDS011;8051;50.820;4.884;2024-03-23T09:38:09;32.97;;;30.43;;
15905;SDS011;8051;50.820;4.884;2024-03-23T09:40:40;34.73;;;32.13;;
15905;SDS011;8051;50.820;4.884;2024-03-23T09:43:08;32.53;;;29.53;;
15905;SDS011;8051;50.820;4.884;2024-03-23T09:45:36;30.57;;;28.13;;
15905;SDS011;8051;50.820;4.884;2024-03-23T09:48:06;29.70;;;27.17;;
15905;SDS011;8051;50.820;4.884;2024-03-23T09:50:33;28.37;;;25.93;;
15905;SDS011;8051;50.820;4.884;2024-03-23T09:53:04;28.40;;;26.30;;
15905;SDS011;8051;50.820;4.884;2024-03-23T09:55:31;30.37;;;28.13;;
15905;SDS011;8051;50.820;4.884;2024-03-23T09:58:00;27.50;;;25.47;;
15905;SDS011;8051;50.820;4.884;2024-03-23T10:00:26;26.30;;;24.20;;
15905;SDS011;8051;50.820;4.884;2024-03-23T10:02:55;27.90;;;26.00;;
15905;SDS011;8051;50.820;4.884;2024-03-23T10:05:23;27.87;;;25.77;;
15905;SDS011;8051;50.820;4.884;2024-03-23T10:07:52;29.07;;;26.50;;
15905;SDS011;8051;50.820;4.884;2024-03-23T10:10:20;30.50;;;27.83;;
15905;SDS011;8051;50.820;4.884;2024-03-23T10:12:48;27.40;;;25.30;;
15905;SDS011;8051;50.820;4.884;2024-03-23T10:15:18;28.50;;;26.13;;
15905;SDS011;8051;50.820;4.884;2024-03-23T10:17:46;27.77;;;25.57;;
15905;SDS011;8051;50.820;4.884;2024-03-23T10:20:13;27.33;;;25.00;;
15905;SDS011;8051;50.820;4.884;2024-03-23T10:22:45;25.73;;;23.93;;
15905;SDS011;8051;50.820;4.884;2024-03-23T10:25:12;26.77;;;24.77;;
15905;SDS011;8051;50.820;4.884;2024-03-23T10:27:41;29.23;;;26.70;;
15905;SDS011;8051;50.820;4.884;2024-03-23T10:30:09;27.13;;;25.10;;
15905;SDS011;8051;50.820;4.884;2024-03-23T10:32:37;25.13;;;23.07;;
15905;SDS011;8051;50.820;4.884;2024-03-23T10:35:16;25.00;;;23.10;;
15905;SDS011;8051;50.820;4.884;2024-03-23T10:37:46;26.17;;;24.20;;
15905;SDS011;8051;50.820;4.884;2024-03-23T10:40:14;26.27;;;24.13;;
15905;SDS011;8051;50.820;4.884;2024-03-23T10:42:44;26.20;;;23.97;;
15905;SDS011;8051;50.820;4.884;2024-03-23T10:45:11;24.67;;;22.90;;
15905;SDS011;8051;50.820;4.884;2024-03-23T10:47:38;21.97;;;20.57;;
15905;SDS011;8051;50.820;4.884;2024-03-23T10:50:05;22.97;;;21.40;;
15905;SDS011;8051;50.820;4.884;2024-03-23T10:52:32;23.77;;;22.23;;
15905;SDS011;8051;50.820;4.884;2024-03-23T10:54:59;24.23;;;22.53;;
15905;SDS011;8051;50.820;4.884;2024-03-23T10:57:30;23.60;;;22.13;;
15905;SDS011;8051;50.820;4.884;2024-03-23T11:00:03;23.13;;;21.60;;
15905;SDS011;8051;50.820;4.884;2024-03-23T11:02:32;27.80;;;25.40;;
15905;SDS011;8051;50.820;4.884;2024-03-23T11:04:58;27.43;;;25.40;;
15905;SDS011;8051;50.820;4.884;2024-03-23T11:07:29;27.30;;;25.27;;
15905;SDS011;8051;50.820;4.884;2024-03-23T11:09:56;26.10;;;24.23;;
15905;SDS011;8051;50.820;4.884;2024-03-23T11:12:28;28.67;;;26.60;;
15905;SDS011;8051;50.820;4.884;2024-03-23T11:15:00;26.20;;;24.37;;
15905;SDS011;8051;50.820;4.884;2024-03-23T11:17:30;24.07;;;22.57;;
15905;SDS011;8051;50.820;4.884;2024-03-23T11:19:57;23.60;;;22.13;;
15905;SDS011;8051;50.820;4.884;2024-03-23T11:22:38;23.70;;;21.83;;
15905;SDS011;8051;50.820;4.884;2024-03-23T11:25:12;24.23;;;21.87;;
15905;SDS011;8051;50.820;4.884;2024-03-23T11:27:40;24.33;;;22.50;;
15905;SDS011;8051;50.820;4.884;2024-03-23T11:30:15;22.50;;;20.77;;
15905;SDS011;8051;50.820;4.884;2024-03-23T11:32:44;22.17;;;20.20;;
15905;SDS011;8051;50.820;4.884;2024-03-23T11:35:11;20.90;;;19.07;;
15905;SDS011;8051;50.820;4.884;2024-03-23T11:38:02;20.43;;;19.13;;
15905;SDS011;8051;50.820;4.884;2024-03-23T11:40:29;20.47;;;19.17;;
15905;SDS011;8051;50.820;4.884;2024-03-23T11:42:58;21.17;;;19.63;;
15905;SDS011;8051;50.820;4.884;2024-03-23T11:45:26;19.27;;;18.07;;
15905;SDS011;8051;50.820;4.884;2024-03-23T11:48:01;22.07;;;20.43;;
15905;SDS011;8051;50.820;4.884;2024-03-23T11:50:32;21.87;;;20.47;;
15905;SDS011;8051;50.820;4.884;2024-03-23T11:53:07;20.53;;;18.67;;
15905;SDS011;8051;50.820;4.884;2024-03-23T11:55:46;21.80;;;20.37;;
15905;SDS011;8051;50.820;4.884;2024-03-23T11:58:15;21.97;;;20.60;;
15905;SDS011;8051;50.820;4.884;2024-03-23T12:00:48;21.00;;;19.43;;
15905;SDS011;8051;50.820;4.884;2024-03-23T12:03:17;22.00;;;20.67;;
15905;SDS011;8051;50.820;4.884;2024-03-23T12:05:47;22.20;;;20.57;;
15905;SDS011;8051;50.820;4.884;2024-03-23T12:08:19;22.30;;;20.90;;
15905;SDS011;8051;50.820;4.884;2024-03-23T12:10:47;23.70;;;21.13;;
15905;SDS011;8051;50.820;4.884;2024-03-23T12:13:16;22.20;;;20.27;;
15905;SDS011;8051;50.820;4.884;2024-03-23T12:15:48;19.47;;;18.27;;
15905;SDS011;8051;50.820;4.884;2024-03-23T12:18:17;20.23;;;18.93;;
15905;SDS011;8051;50.820;4.884;2024-03-23T12:20:49;21.60;;;19.53;;
15905;SDS011;8051;50.820;4.884;2024-03-23T12:23:16;20.97;;;19.57;;
15905;SDS011;8051;50.820;4.884;2024-03-23T12:25:43;21.70;;;20.20;;
15905;SDS011;8051;50.820;4.884;2024-03-23T12:28:10;20.67;;;19.10;;
15905;SDS011;8051;50.820;4.884;2024-03-23T12:30:38;20.40;;;19.07;;
15905;SDS011;8051;50.820;4.884;2024-03-23T12:33:08;20.63;;;19.13;;
15905;SDS011;8051;50.820;4.884;2024-03-23T12:35:34;20.27;;;18.97;;
15905;SDS011;8051;50.820;4.884;2024-03-23T12:38:01;20.10;;;18.77;;
15905;SDS011;8051;50.820;4.884;2024-03-23T12:40:28;20.87;;;19.63;;
15905;SDS011;8051;50.820;4.884;2024-03-23T12:42:56;20.10;;;18.90;;
15905;SDS011;8051;50.820;4.884;2024-03-23T12:45:22;19.43;;;18.13;;
15905;SDS011;8051;50.820;4.884;2024-03-23T12:47:50;21.30;;;19.63;;
15905;SDS011;8051;50.820;4.884;2024-03-23T12:50:20;20.57;;;19.17;;
15905;SDS011;8051;50.820;4.884;2024-03-23T12:52:48;20.60;;;19.27;;
15905;SDS011;8051;50.820;4.884;2024-03-23T12:55:14;21.60;;;20.20;;
15905;SDS011;8051;50.820;4.884;2024-03-23T12:57:42;20.53;;;19.13;;
15905;SDS011;8051;50.820;4.884;2024-03-23T13:00:09;19.37;;;17.93;;
15905;SDS011;8051;50.820;4.884;2024-03-23T13:02:37;20.40;;;18.80;;
15905;SDS011;8051;50.820;4.884;2024-03-23T13:05:04;24.90;;;22.77;;
15905;SDS011;8051;50.820;4.884;2024-03-23T13:07:34;24.40;;;22.80;;
15905;SDS011;8051;50.820;4.884;2024-03-23T13:10:04;25.53;;;23.40;;
15905;SDS011;8051;50.820;4.884;2024-03-23T13:12:32;24.57;;;22.87;;
15905;SDS011;8051;50.820;4.884;2024-03-23T13:14:59;24.73;;;22.93;;
15905;SDS011;8051;50.820;4.884;2024-03-23T13:17:26;23.40;;;21.80;;
15905;SDS011;8051;50.820;4.884;2024-03-23T13:19:52;21.63;;;20.33;;
15905;SDS011;8051;50.820;4.884;2024-03-23T13:22:20;23.00;;;21.60;;
15905;SDS011;8051;50.820;4.884;2024-03-23T13:24:48;23.93;;;21.97;;
15905;SDS011;8051;50.820;4.884;2024-03-23T13:27:16;22.57;;;21.17;;
15905;SDS011;8051;50.820;4.884;2024-03-23T13:29:43;21.47;;;20.07;;
15905;SDS011;8051;50.820;4.884;2024-03-23T13:32:12;22.07;;;20.67;;
15905;SDS011;8051;50.820;4.884;2024-03-23T13:34:38;21.33;;;19.80;;
15905;SDS011;8051;50.820;4.884;2024-03-23T13:37:06;20.30;;;18.90;;
15905;SDS011;8051;50.820;4.884;2024-03-23T13:39:32;20.30;;;18.80;;
15905;SDS011;8051;50.820;4.884;2024-03-23T13:42:01;20.37;;;18.97;;
15905;SDS011;8051;50.820;4.884;2024-03-23T13:44:29;19.27;;;18.07;;
15905;SDS011;8051;50.820;4.884;2024-03-23T13:46:56;21.50;;;19.83;;
15905;SDS011;8051;50.820;4.884;2024-03-23T13:49:24;20.03;;;18.83;;
15905;SDS011;8051;50.820;4.884;2024-03-23T13:51:52;18.63;;;17.63;;
15905;SDS011;8051;50.820;4.884;2024-03-23T13:54:20;18.53;;;17.37;;
15905;SDS011;8051;50.820;4.884;2024-03-23T13:56:47;17.37;;;16.20;;
15905;SDS011;8051;50.820;4.884;2024-03-23T13:59:17;17.20;;;15.63;;
15905;SDS011;8051;50.820;4.884;2024-03-23T14:01:43;18.37;;;16.97;;
15905;SDS011;8051;50.820;4.884;2024-03-23T14:04:11;16.17;;;15.13;;
15905;SDS011;8051;50.820;4.884;2024-03-23T14:06:38;17.63;;;16.27;;
15905;SDS011;8051;50.820;4.884;2024-03-23T14:09:07;16.70;;;15.60;;
15905;SDS011;8051;50.820;4.884;2024-03-23T14:11:34;15.87;;;14.90;;
15905;SDS011;8051;50.820;4.884;2024-03-23T14:14:02;15.60;;;14.80;;
15905;SDS011;8051;50.820;4.884;2024-03-23T14:16:30;16.47;;;15.20;;
15905;SDS011;8051;50.820;4.884;2024-03-23T14:18:58;16.77;;;15.50;;
15905;SDS011;8051;50.820;4.884;2024-03-23T14:21:24;15.20;;;14.10;;
15905;SDS011;8051;50.820;4.884;2024-03-23T14:23:52;17.33;;;16.30;;
15905;SDS011;8051;50.820;4.884;2024-03-23T14:26:19;16.97;;;15.67;;
15905;SDS011;8051;50.820;4.884;2024-03-23T14:28:46;16.23;;;15.23;;
15905;SDS011;8051;50.820;4.884;2024-03-23T14:31:12;16.90;;;15.90;;
15905;SDS011;8051;50.820;4.884;2024-03-23T14:33:41;17.10;;;15.87;;
15905;SDS011;8051;50.820;4.884;2024-03-23T14:36:11;17.70;;;16.43;;
15905;SDS011;8051;50.820;4.884;2024-03-23T14:38:39;16.47;;;15.47;;
15905;SDS011;8051;50.820;4.884;2024-03-23T14:41:05;15.50;;;14.57;;
15905;SDS011;8051;50.820;4.884;2024-03-23T14:43:33;15.43;;;14.63;;
15905;SDS011;8051;50.820;4.884;2024-03-23T14:46:06;15.40;;;14.23;;
15905;SDS011;8051;50.820;4.884;2024-03-23T14:48:34;15.93;;;14.87;;
15905;SDS011;8051;50.820;4.884;2024-03-23T14:51:02;18.63;;;17.50;;
15905;SDS011;8051;50.820;4.884;2024-03-23T14:53:31;19.53;;;18.10;;
15905;SDS011;8051;50.820;4.884;2024-03-23T14:55:58;18.47;;;17.27;;
15905;SDS011;8051;50.820;4.884;2024-03-23T14:58:26;16.13;;;15.17;;
15905;SDS011;8051;50.820;4.884;2024-03-23T15:00:53;20.43;;;19.23;;
15905;SDS011;8051;50.820;4.884;2024-03-23T15:03:26;18.63;;;17.13;;
15905;SDS011;8051;50.820;4.884;2024-03-23T15:05:53;18.30;;;17.03;;
15905;SDS011;8051;50.820;4.884;2024-03-23T15:08:22;19.60;;;18.20;;
15905;SDS011;8051;50.820;4.884;2024-03-23T15:10:49;18.40;;;17.10;;
15905;SDS011;8051;50.820;4.884;2024-03-23T15:13:17;17.60;;;16.20;;
15905;SDS011;8051;50.820;4.884;2024-03-23T15:15:44;17.17;;;16.17;;
15905;SDS011;8051;50.820;4.884;2024-03-23T15:18:13;16.97;;;15.77;;
15905;SDS011;8051;50.820;4.884;2024-03-23T15:20:40;15.37;;;14.47;;
15905;SDS011;8051;50.820;4.884;2024-03-23T15:23:08;16.47;;;15.20;;
15905;SDS011;8051;50.820;4.884;2024-03-23T15:25:36;16.87;;;15.67;;
15905;SDS011;8051;50.820;4.884;2024-03-23T15:28:03;16.13;;;14.40;;
15905;SDS011;8051;50.820;4.884;2024-03-23T15:30:30;16.77;;;15.40;;